createdAt,value
2023-05-10T00:00:15.826Z,1.88
2023-05-10T00:02:47.755Z,1.77
2023-05-10T00:05:18.400Z,1.92
2023-05-10T00:07:49.010Z,2.05
2023-05-10T00:10:19.642Z,1.77
2023-05-10T00:12:50.468Z,2.13
2023-05-10T00:15:21.520Z,2.13
2023-05-10T00:17:52.350Z,1.85
2023-05-10T00:20:23.084Z,2.03
2023-05-10T00:22:53.403Z,1.92
2023-05-10T00:25:24.173Z,2.03
2023-05-10T00:27:54.967Z,1.77
2023-05-10T00:30:25.629Z,2.17
2023-05-10T00:32:55.976Z,1.95
2023-05-10T00:35:26.272Z,2.28
2023-05-10T00:37:56.764Z,2.15
2023-05-10T00:40:27.173Z,2.25
2023-05-10T00:43:03.374Z,2.35
2023-05-10T00:45:35.688Z,2.10
2023-05-10T00:48:07.804Z,2.22
2023-05-10T00:50:38.911Z,2.00
2023-05-10T00:53:09.885Z,2.50
2023-05-10T00:55:40.847Z,2.10
2023-05-10T00:58:11.193Z,2.38
2023-05-10T01:00:45.988Z,2.45
2023-05-10T01:03:16.478Z,2.13
2023-05-10T01:05:46.790Z,2.83
2023-05-10T01:08:17.148Z,2.33
2023-05-10T01:10:47.873Z,2.13
2023-05-10T01:13:28.264Z,2.17
2023-05-10T01:15:59.059Z,2.05
2023-05-10T01:18:30.673Z,2.17
2023-05-10T01:21:16.567Z,2.35
2023-05-10T01:24:01.672Z,2.28
2023-05-10T01:27:07.822Z,2.33
2023-05-10T01:30:05.065Z,2.80
2023-05-10T01:33:14.492Z,2.50
2023-05-10T01:36:12.427Z,2.38
2023-05-10T01:39:04.280Z,2.60
2023-05-10T01:41:37.050Z,2.45
2023-05-10T01:46:45.318Z,2.20
2023-05-10T01:49:28.507Z,2.53
2023-05-10T01:52:16.496Z,2.50
2023-05-10T01:55:23.719Z,2.50
2023-05-10T01:58:10.048Z,2.35
2023-05-10T02:00:45.309Z,2.97
2023-05-10T02:03:18.009Z,2.92
2023-05-10T02:08:21.478Z,2.28
2023-05-10T02:10:54.828Z,2.65
2023-05-10T02:13:28.452Z,2.67
2023-05-10T02:16:00.185Z,2.50
2023-05-10T02:18:30.645Z,2.70
2023-05-10T02:21:01.534Z,2.30
2023-05-10T02:23:33.028Z,2.58
2023-05-10T02:26:04.236Z,2.55
2023-05-10T02:28:36.164Z,3.00
2023-05-10T02:31:07.962Z,2.83
2023-05-10T02:33:39.756Z,2.80
2023-05-10T02:36:12.481Z,2.85
2023-05-10T02:38:44.546Z,3.17
2023-05-10T02:41:15.644Z,2.88
2023-05-10T02:43:46.761Z,2.33
2023-05-10T02:46:17.858Z,3.10
2023-05-10T02:48:48.318Z,2.60
2023-05-10T02:51:21.729Z,2.88
2023-05-10T02:53:53.387Z,2.85
2023-05-10T02:56:38.292Z,2.60
2023-05-10T02:59:08.655Z,3.00
2023-05-10T03:01:38.784Z,2.42
2023-05-10T03:04:09.930Z,2.50
2023-05-10T03:06:40.336Z,2.53
2023-05-10T03:09:14.716Z,2.78
2023-05-10T03:12:10.797Z,2.80
2023-05-10T03:14:58.841Z,2.45
2023-05-10T03:17:42.849Z,2.88
2023-05-10T03:20:16.816Z,2.80
2023-05-10T03:23:14.813Z,3.20
2023-05-10T03:25:46.942Z,3.33
2023-05-10T03:28:19.321Z,2.72
2023-05-10T03:30:51.179Z,2.67
2023-05-10T03:33:23.469Z,2.90
2023-05-10T03:35:53.514Z,2.83
2023-05-10T03:38:23.879Z,2.20
2023-05-10T03:40:53.885Z,2.88
2023-05-10T03:43:23.811Z,2.50
2023-05-10T03:45:53.967Z,2.50
2023-05-10T03:48:23.845Z,3.00
2023-05-10T03:50:54.317Z,2.33
2023-05-10T03:53:24.962Z,2.92
2023-05-10T03:55:55.021Z,2.53
2023-05-10T03:58:24.942Z,2.80
2023-05-10T04:00:55.199Z,2.72
2023-05-10T04:03:25.464Z,2.60
2023-05-10T04:06:03.417Z,2.63
2023-05-10T04:08:34.257Z,2.65
2023-05-10T04:11:15.029Z,2.70
2023-05-10T04:13:45.350Z,2.60
2023-05-10T04:16:15.865Z,2.85
2023-05-10T04:18:45.916Z,2.38
2023-05-10T04:21:17.012Z,2.50
2023-05-10T04:23:47.434Z,2.95
2023-05-10T04:26:17.497Z,2.30
2023-05-10T04:28:47.580Z,2.60
2023-05-10T04:31:18.578Z,2.45
2023-05-10T04:33:48.668Z,2.38
2023-05-10T04:36:18.860Z,2.85
2023-05-10T04:38:48.988Z,2.33
2023-05-10T04:41:18.995Z,2.15
2023-05-10T04:43:51.231Z,2.20
2023-05-10T04:46:21.946Z,2.50
2023-05-10T04:48:52.045Z,2.42
2023-05-10T04:51:22.670Z,2.03
2023-05-10T04:54:04.639Z,2.20
2023-05-10T04:56:36.349Z,2.95
2023-05-10T04:59:06.619Z,2.40
2023-05-10T05:01:36.741Z,1.85
2023-05-10T05:04:07.220Z,2.00
2023-05-10T05:06:37.994Z,2.53
2023-05-10T05:09:08.075Z,2.40
2023-05-10T05:11:38.323Z,2.20
2023-05-10T05:14:08.505Z,2.35
2023-05-10T05:16:38.573Z,1.73
2023-05-10T05:19:08.718Z,2.20
2023-05-10T05:21:38.996Z,2.38
2023-05-10T05:24:09.440Z,2.22
2023-05-10T05:26:39.777Z,1.98
2023-05-10T05:29:09.862Z,1.98
2023-05-10T05:31:40.004Z,2.35
2023-05-10T05:34:10.211Z,2.22
2023-05-10T05:36:43.515Z,2.00
2023-05-10T05:39:14.623Z,2.03
2023-05-10T05:41:44.914Z,2.20
2023-05-10T05:44:15.073Z,2.28
2023-05-10T05:46:44.902Z,2.05
2023-05-10T05:49:14.888Z,2.03
2023-05-10T05:51:45.247Z,2.22
2023-05-10T05:54:15.421Z,2.22
2023-05-10T05:56:46.433Z,2.10
2023-05-10T05:59:16.422Z,2.38
2023-05-10T06:01:47.540Z,2.03
2023-05-10T06:04:17.889Z,2.15
2023-05-10T06:06:48.319Z,2.72
2023-05-10T06:09:18.379Z,1.80
2023-05-10T06:11:48.838Z,2.45
2023-05-10T06:14:19.508Z,2.38
2023-05-10T06:16:49.600Z,2.00
2023-05-10T06:19:19.847Z,2.45
2023-05-10T06:21:50.692Z,2.03
2023-05-10T06:24:22.157Z,2.28
2023-05-10T06:26:52.616Z,2.35
2023-05-10T06:29:22.928Z,2.00
2023-05-10T06:31:53.045Z,1.80
2023-05-10T06:34:23.086Z,2.08
2023-05-10T06:36:53.772Z,1.77
2023-05-10T06:39:24.401Z,2.25
2023-05-10T06:41:54.597Z,2.50
2023-05-10T06:44:25.852Z,1.88
2023-05-10T06:46:57.382Z,1.98
2023-05-10T06:49:27.599Z,2.50
2023-05-10T06:51:58.705Z,2.38
2023-05-10T06:54:30.127Z,1.73
2023-05-10T06:57:01.859Z,1.90
2023-05-10T06:59:33.818Z,2.38
2023-05-10T07:02:03.967Z,1.83
2023-05-10T07:04:34.235Z,1.70
2023-05-10T07:07:04.286Z,1.92
2023-05-10T07:09:34.443Z,2.50
2023-05-10T07:12:04.961Z,1.70
2023-05-10T07:14:35.104Z,1.83
2023-05-10T07:17:05.201Z,1.90
2023-05-10T07:19:35.417Z,1.70
2023-05-10T07:22:05.869Z,2.10
2023-05-10T07:24:37.216Z,2.20
2023-05-10T07:27:07.744Z,1.70
2023-05-10T07:29:39.534Z,1.73
2023-05-10T07:32:10.637Z,2.03
2023-05-10T07:34:40.863Z,1.83
2023-05-10T07:37:10.986Z,2.00
2023-05-10T07:39:41.037Z,1.95
2023-05-10T07:42:11.372Z,1.83
2023-05-10T07:44:41.451Z,1.65
2023-05-10T07:47:11.883Z,1.77
2023-05-10T07:49:42.240Z,3.05
2023-05-10T07:52:12.339Z,2.40
2023-05-10T07:54:42.339Z,2.13
2023-05-10T07:57:12.703Z,1.77
2023-05-10T07:59:42.772Z,1.80
2023-05-10T08:02:13.287Z,2.25
2023-05-10T08:04:43.522Z,2.40
2023-05-10T08:07:14.068Z,2.08
2023-05-10T08:09:44.236Z,1.80
2023-05-10T08:12:14.764Z,2.00
2023-05-10T08:14:45.030Z,1.73
2023-05-10T08:17:15.467Z,1.77
2023-05-10T08:19:45.461Z,1.92
2023-05-10T08:22:15.586Z,2.20
2023-05-10T08:24:45.811Z,2.13
2023-05-10T08:27:15.642Z,1.90
2023-05-10T08:29:50.040Z,2.10
2023-05-10T08:32:21.829Z,2.15
2023-05-10T08:34:51.872Z,1.98
2023-05-10T08:37:22.351Z,1.95
2023-05-10T08:39:52.401Z,1.70
2023-05-10T08:42:27.990Z,1.95
2023-05-10T08:44:59.600Z,1.85
2023-05-10T08:47:30.061Z,2.00
2023-05-10T08:50:03.219Z,2.00
2023-05-10T08:52:35.274Z,1.75
2023-05-10T08:55:05.581Z,2.15
2023-05-10T08:57:35.751Z,1.75
2023-05-10T09:00:06.731Z,1.60
2023-05-10T09:02:39.468Z,1.50
2023-05-10T09:05:11.194Z,2.30
2023-05-10T09:07:41.434Z,2.25
2023-05-10T09:10:13.372Z,1.83
2023-05-10T09:12:46.170Z,1.98
2023-05-10T09:15:21.315Z,2.20
2023-05-10T09:17:53.170Z,2.13
2023-05-10T09:20:24.768Z,2.05
2023-05-10T09:22:54.937Z,2.58
2023-05-10T09:25:24.834Z,2.40
2023-05-10T09:27:55.257Z,2.63
2023-05-10T09:30:30.457Z,1.75
2023-05-10T09:33:02.138Z,1.60
2023-05-10T09:35:36.116Z,0.77
2023-05-10T09:38:07.672Z,2.33
2023-05-10T09:40:37.895Z,3.58
2023-05-10T09:43:10.998Z,3.80
2023-05-10T09:45:43.557Z,5.28
2023-05-10T09:48:15.655Z,5.20
2023-05-10T09:50:45.836Z,5.05
2023-05-10T09:53:19.784Z,5.68
2023-05-10T09:55:51.971Z,6.05
2023-05-10T09:58:22.145Z,4.18
2023-05-10T10:00:54.429Z,4.40
2023-05-10T10:03:24.878Z,4.45
2023-05-10T10:05:58.120Z,5.22
2023-05-10T10:08:29.816Z,4.75
2023-05-10T10:11:00.076Z,5.28
2023-05-10T10:13:30.234Z,5.40
2023-05-10T10:16:00.812Z,4.65
2023-05-10T10:18:33.164Z,4.53
2023-05-10T10:21:06.490Z,5.40
2023-05-10T10:23:37.992Z,5.30
2023-05-10T10:26:09.307Z,4.95
2023-05-10T10:28:45.796Z,5.22
2023-05-10T10:31:44.121Z,6.93
2023-05-10T10:34:28.653Z,4.90
2023-05-10T10:37:00.346Z,4.00
2023-05-10T10:39:30.770Z,4.95
2023-05-10T10:42:03.084Z,5.43
2023-05-10T10:44:40.756Z,6.40
2023-05-10T10:47:30.243Z,6.45
2023-05-10T10:50:03.969Z,4.80
2023-05-10T10:52:39.045Z,6.80
2023-05-10T10:55:21.207Z,6.18
2023-05-10T10:58:03.737Z,7.43
2023-05-10T11:00:43.048Z,6.75
2023-05-10T11:03:20.973Z,6.82
2023-05-10T11:06:03.581Z,7.60
2023-05-10T11:08:36.888Z,7.47
2023-05-10T11:11:10.548Z,7.63
2023-05-10T11:13:43.285Z,7.43
2023-05-10T11:16:27.061Z,7.85
2023-05-10T11:19:03.972Z,7.82
2023-05-10T11:21:35.878Z,8.65
2023-05-10T11:24:16.510Z,7.93
2023-05-10T11:26:46.802Z,7.25
2023-05-10T11:29:19.036Z,7.93
2023-05-10T11:31:50.717Z,8.27
2023-05-10T11:34:37.432Z,9.30
2023-05-10T11:37:07.507Z,9.32
2023-05-10T11:39:37.726Z,9.07
2023-05-10T11:42:07.914Z,8.98
2023-05-10T11:44:38.051Z,9.30
2023-05-10T11:47:08.482Z,8.73
2023-05-10T11:49:38.543Z,7.05
2023-05-10T11:52:13.547Z,7.20
2023-05-10T11:55:01.638Z,7.80
2023-05-10T11:57:33.412Z,6.93
2023-05-10T12:00:05.901Z,7.00
2023-05-10T12:02:37.465Z,6.70
2023-05-10T12:05:09.128Z,5.55
2023-05-10T12:07:39.382Z,5.07
2023-05-10T12:10:10.525Z,5.20
2023-05-10T12:12:45.599Z,5.75
2023-05-10T12:15:26.922Z,5.20
2023-05-10T12:17:57.201Z,5.07
2023-05-10T12:20:29.942Z,4.25
2023-05-10T12:23:04.158Z,4.38
2023-05-10T12:25:36.307Z,4.05
2023-05-10T12:28:08.707Z,3.90
2023-05-10T12:30:40.285Z,4.13
2023-05-10T12:33:20.282Z,3.88
2023-05-10T12:35:58.526Z,4.50
2023-05-10T12:38:35.187Z,4.03
2023-05-10T12:41:07.414Z,3.45
2023-05-10T12:43:38.583Z,3.05
2023-05-10T12:46:13.507Z,2.97
2023-05-10T12:48:44.677Z,3.42
2023-05-10T12:51:17.665Z,3.63
2023-05-10T12:53:50.096Z,3.90
2023-05-10T12:56:20.114Z,4.07
2023-05-10T12:58:50.485Z,2.88
2023-05-10T13:01:20.547Z,3.00
2023-05-10T13:03:50.693Z,3.33
2023-05-10T13:06:20.802Z,3.03
2023-05-10T13:08:51.200Z,3.88
2023-05-10T13:11:21.931Z,4.32
2023-05-10T13:13:55.365Z,4.38
2023-05-10T13:16:25.478Z,6.53
2023-05-10T13:18:55.549Z,4.63
2023-05-10T13:21:26.818Z,4.70
2023-05-10T13:23:57.787Z,4.97
2023-05-10T13:26:28.398Z,4.82
2023-05-10T13:28:58.593Z,4.43
2023-05-10T13:31:28.770Z,4.82
2023-05-10T13:33:59.077Z,4.90
2023-05-10T13:36:29.187Z,4.18
2023-05-10T13:38:59.227Z,4.57
2023-05-10T13:41:30.312Z,4.70
2023-05-10T13:44:00.722Z,5.18
2023-05-10T13:46:32.055Z,5.20
2023-05-10T13:49:03.036Z,4.57
2023-05-10T13:51:33.844Z,5.45
2023-05-10T13:54:05.988Z,4.63
2023-05-10T13:56:36.046Z,4.70
2023-05-10T13:59:06.084Z,4.43
2023-05-10T14:02:10.014Z,4.60
2023-05-10T14:04:41.099Z,4.70
2023-05-10T14:07:11.237Z,4.47
2023-05-10T14:09:43.881Z,5.13
2023-05-10T14:12:14.019Z,3.97
2023-05-10T14:14:44.326Z,4.03
2023-05-10T14:17:14.443Z,5.32
2023-05-10T14:19:44.648Z,6.00
2023-05-10T14:22:14.935Z,6.22
2023-05-10T14:24:48.893Z,5.25
2023-05-10T14:27:19.404Z,7.03
2023-05-10T14:29:50.592Z,7.10
2023-05-10T14:32:21.240Z,7.45
2023-05-10T14:34:51.506Z,8.07
2023-05-10T14:37:21.937Z,7.68
2023-05-10T14:39:52.288Z,8.20
2023-05-10T14:42:22.751Z,8.20
2023-05-10T14:44:52.976Z,10.30
2023-05-10T14:47:24.308Z,9.90
2023-05-10T14:49:54.528Z,8.98
2023-05-10T14:52:24.922Z,10.25
2023-05-10T14:54:55.715Z,10.98
2023-05-10T14:57:26.072Z,10.93
2023-05-10T14:59:57.316Z,10.48
2023-05-10T15:02:28.268Z,10.40
2023-05-10T15:04:59.772Z,12.98
2023-05-10T15:07:31.051Z,13.43
2023-05-10T15:10:01.292Z,12.68
2023-05-10T15:12:31.816Z,11.45
2023-05-10T15:15:02.104Z,12.73
2023-05-10T15:17:32.901Z,11.57
2023-05-10T15:20:05.627Z,10.50
2023-05-10T15:22:36.178Z,9.95
2023-05-10T15:25:06.796Z,10.52
2023-05-10T15:27:37.445Z,10.57
2023-05-10T15:30:08.673Z,10.63
2023-05-10T15:32:39.578Z,10.18
2023-05-10T15:35:12.443Z,9.63
2023-05-10T15:37:42.971Z,10.70
2023-05-10T15:40:13.585Z,9.98
2023-05-10T15:42:43.986Z,10.32
2023-05-10T15:45:14.597Z,10.07
2023-05-10T15:47:46.327Z,9.80
2023-05-10T15:50:18.460Z,8.50
2023-05-10T15:52:50.842Z,7.78
2023-05-10T15:55:21.598Z,6.93
2023-05-10T15:57:52.618Z,7.18
2023-05-10T16:00:23.303Z,6.75
2023-05-10T16:02:56.457Z,6.07
2023-05-10T16:05:28.759Z,5.68
2023-05-10T16:07:59.194Z,3.47
2023-05-10T16:10:30.093Z,3.92
2023-05-10T16:13:01.742Z,3.10
2023-05-10T16:15:32.078Z,1.73
2023-05-10T16:18:03.000Z,2.13
2023-05-10T16:20:34.778Z,2.85
2023-05-10T16:23:09.972Z,2.15
2023-05-10T16:25:40.139Z,2.22
2023-05-10T16:28:10.531Z,1.85
2023-05-10T16:30:42.329Z,1.63
2023-05-10T16:33:12.630Z,2.30
2023-05-10T16:35:42.846Z,2.30
2023-05-10T16:38:13.221Z,1.90
2023-05-10T16:40:44.426Z,2.28
2023-05-10T16:43:14.492Z,1.98
2023-05-10T16:45:45.288Z,1.60
2023-05-10T16:48:15.548Z,1.65
2023-05-10T16:50:46.167Z,1.70
2023-05-10T16:53:16.289Z,1.80
2023-05-10T16:55:46.524Z,2.05
2023-05-10T16:58:16.790Z,1.00
2023-05-10T17:00:47.926Z,1.20
2023-05-10T17:03:18.203Z,1.30
2023-05-10T17:05:48.638Z,1.20
2023-05-10T17:08:19.079Z,1.13
2023-05-10T17:10:49.755Z,0.90
2023-05-10T17:13:20.089Z,1.35
2023-05-10T17:15:50.468Z,1.25
2023-05-10T17:18:20.838Z,1.15
2023-05-10T17:20:52.193Z,1.27
2023-05-10T17:23:23.504Z,1.17
2023-05-10T17:25:54.527Z,1.67
2023-05-10T17:28:24.877Z,1.60
2023-05-10T17:30:59.425Z,1.60
2023-05-10T17:33:29.642Z,2.03
2023-05-10T17:36:00.237Z,2.00
2023-05-10T17:38:30.248Z,1.75
2023-05-10T17:41:00.307Z,2.00
2023-05-10T17:43:30.336Z,1.45
2023-05-10T17:46:00.310Z,1.40
2023-05-10T17:48:30.537Z,1.02
2023-05-10T17:51:00.617Z,1.00
2023-05-10T17:53:30.693Z,1.38
2023-05-10T17:56:02.739Z,1.20
2023-05-10T17:58:32.795Z,0.70
2023-05-10T18:01:03.154Z,0.70
2023-05-10T18:03:33.242Z,1.10
2023-05-10T18:06:05.526Z,0.90
2023-05-10T18:08:35.740Z,0.70
2023-05-10T18:11:05.919Z,0.52
2023-05-10T18:13:35.974Z,0.50
2023-05-10T18:16:07.223Z,0.50
2023-05-10T18:18:37.623Z,0.60
2023-05-10T18:21:07.798Z,0.50
2023-05-10T18:23:38.250Z,0.73
2023-05-10T18:26:09.686Z,1.00
2023-05-10T18:28:41.554Z,0.52
2023-05-10T18:31:11.697Z,0.60
2023-05-10T18:33:42.663Z,0.60
2023-05-10T18:36:12.992Z,0.90
2023-05-10T18:38:43.318Z,0.75
2023-05-10T18:41:15.682Z,0.60
2023-05-10T18:43:45.943Z,0.68
2023-05-10T18:46:16.466Z,0.82
2023-05-10T18:48:46.618Z,0.80
2023-05-10T18:51:16.729Z,0.80
2023-05-10T18:53:46.843Z,0.30
2023-05-10T18:56:16.933Z,0.55
2023-05-10T18:58:47.303Z,0.77
2023-05-10T19:01:18.036Z,0.40
2023-05-10T19:03:49.573Z,0.52
2023-05-10T19:06:19.659Z,0.50
2023-05-10T19:08:49.593Z,0.70
2023-05-10T19:11:20.393Z,0.55
2023-05-10T19:13:50.471Z,0.60
2023-05-10T19:16:23.230Z,0.82
2023-05-10T19:18:56.063Z,0.50
2023-05-10T19:21:26.636Z,0.80
2023-05-10T19:23:58.398Z,0.60
2023-05-10T19:26:31.860Z,0.75
2023-05-10T19:29:04.286Z,0.70
2023-05-10T19:31:36.414Z,0.90
2023-05-10T19:34:06.588Z,0.90
2023-05-10T19:36:36.960Z,0.77
2023-05-10T19:39:07.038Z,0.75
2023-05-10T19:41:37.556Z,1.42
2023-05-10T19:44:07.817Z,1.15
2023-05-10T19:46:38.115Z,0.93
2023-05-10T19:49:08.226Z,0.50
2023-05-10T19:51:38.331Z,0.77
2023-05-10T19:54:08.569Z,1.10
2023-05-10T19:56:38.640Z,1.35
2023-05-10T19:59:09.204Z,1.27
2023-05-10T20:01:40.561Z,1.20
2023-05-10T20:04:12.340Z,1.13
2023-05-10T20:06:42.628Z,0.82
2023-05-10T20:09:12.772Z,0.93
2023-05-10T20:11:42.868Z,1.05
2023-05-10T20:14:12.761Z,0.52
2023-05-10T20:16:42.867Z,0.63
2023-05-10T20:19:13.648Z,0.98
2023-05-10T20:21:45.638Z,1.10
2023-05-10T20:24:15.872Z,0.70
2023-05-10T20:26:46.214Z,0.80
2023-05-10T20:29:16.260Z,0.75
2023-05-10T20:31:46.373Z,1.15
2023-05-10T20:34:16.646Z,1.20
2023-05-10T20:36:46.870Z,1.50
2023-05-10T20:39:16.981Z,0.90
2023-05-10T20:41:46.981Z,1.00
2023-05-10T20:44:17.204Z,1.00
2023-05-10T20:46:47.333Z,0.80
2023-05-10T20:49:18.768Z,0.90
2023-05-10T20:51:48.956Z,0.80
2023-05-10T20:54:20.103Z,0.85
2023-05-10T20:56:50.682Z,0.80
2023-05-10T20:59:21.167Z,1.58
2023-05-10T21:01:51.357Z,0.90
2023-05-10T21:04:22.444Z,0.90
2023-05-10T21:06:52.789Z,1.52
2023-05-10T21:09:23.279Z,1.20
2023-05-10T21:11:53.548Z,1.30
2023-05-10T21:14:23.866Z,1.40
2023-05-10T21:16:53.971Z,1.48
2023-05-10T21:19:24.039Z,1.55
2023-05-10T21:21:56.013Z,2.45
2023-05-10T21:24:27.015Z,4.00
2023-05-10T21:26:57.261Z,3.72
2023-05-10T21:29:27.311Z,5.68
2023-05-10T21:31:57.913Z,5.78
2023-05-10T21:34:28.332Z,6.28
2023-05-10T21:36:58.385Z,6.30
2023-05-10T21:39:28.657Z,4.82
2023-05-10T21:42:00.610Z,5.60
2023-05-10T21:44:32.014Z,4.60
2023-05-10T21:47:02.311Z,4.45
2023-05-10T21:49:32.866Z,4.65
2023-05-10T21:52:03.197Z,5.10
2023-05-10T21:54:33.556Z,4.97
2023-05-10T21:57:04.585Z,3.90
2023-05-10T21:59:34.787Z,5.18
2023-05-10T22:02:04.974Z,4.35
2023-05-10T22:04:36.577Z,4.63
2023-05-10T22:07:06.836Z,4.22
2023-05-10T22:09:37.100Z,4.38
2023-05-10T22:12:07.356Z,3.80
2023-05-10T22:14:37.665Z,4.32
2023-05-10T22:17:07.942Z,4.53
2023-05-10T22:19:38.108Z,4.18
2023-05-10T22:22:08.330Z,5.22
2023-05-10T22:24:38.560Z,4.28
2023-05-10T22:27:08.946Z,4.75
2023-05-10T22:29:39.456Z,5.32
2023-05-10T22:32:10.717Z,5.50
2023-05-10T22:34:40.763Z,5.18
2023-05-10T22:37:11.439Z,5.50
2023-05-10T22:39:41.518Z,4.80
2023-05-10T22:42:11.817Z,4.20
2023-05-10T22:44:41.923Z,4.30
2023-05-10T22:47:12.159Z,4.90
2023-05-10T22:49:42.293Z,5.50
2023-05-10T22:52:12.504Z,5.70
2023-05-10T22:54:43.875Z,5.00
2023-05-10T22:57:14.343Z,4.80
2023-05-10T22:59:44.904Z,4.82
2023-05-10T23:02:15.938Z,4.18
2023-05-10T23:04:47.853Z,4.03
2023-05-10T23:07:18.040Z,3.55
2023-05-10T23:09:48.272Z,3.55
2023-05-10T23:12:18.689Z,3.22
2023-05-10T23:14:50.794Z,3.58
2023-05-10T23:17:21.917Z,3.13
2023-05-10T23:19:53.820Z,3.50
2023-05-10T23:22:23.973Z,3.13
2023-05-10T23:24:54.457Z,3.25
2023-05-10T23:27:30.036Z,3.25
2023-05-10T23:30:06.633Z,3.38
2023-05-10T23:32:42.964Z,2.33
2023-05-10T23:35:13.541Z,2.22
2023-05-10T23:37:44.242Z,2.08
2023-05-10T23:40:15.396Z,2.15
2023-05-10T23:42:45.792Z,2.28
2023-05-10T23:45:16.143Z,2.50
2023-05-10T23:47:46.742Z,2.33
2023-05-10T23:50:17.858Z,2.50
2023-05-10T23:52:48.424Z,2.15
2023-05-10T23:55:19.270Z,2.50
2023-05-10T23:57:51.133Z,2.25
